sensor_id;sensor_type;location;lat;lon;timestamp;P1;durP1;ratioP1;P2;durP2;ratioP2
5127;SDS011;2582;48.770;9.190;2022-08-24T00:00:38;3.77;;;3.47;;
5127;SDS011;2582;48.770;9.190;2022-08-24T00:03:04;4.90;;;3.50;;
5127;SDS011;2582;48.770;9.190;2022-08-24T00:05:31;3.77;;;3.30;;
5127;SDS011;2582;48.770;9.190;2022-08-24T00:07:56;4.87;;;4.20;;
5127;SDS011;2582;48.770;9.190;2022-08-24T00:10:22;3.63;;;3.33;;
5127;SDS011;2582;48.770;9.190;2022-08-24T00:12:49;3.80;;;3.37;;
5127;SDS011;2582;48.770;9.190;2022-08-24T00:15:15;3.97;;;3.53;;
5127;SDS011;2582;48.770;9.190;2022-08-24T00:17:41;4.27;;;3.77;;
5127;SDS011;2582;48.770;9.190;2022-08-24T00:20:09;3.77;;;3.47;;
5127;SDS011;2582;48.770;9.190;2022-08-24T00:22:36;6.03;;;4.10;;
5127;SDS011;2582;48.770;9.190;2022-08-24T00:25:03;4.17;;;3.87;;
5127;SDS011;2582;48.770;9.190;2022-08-24T00:27:29;4.30;;;3.90;;
5127;SDS011;2582;48.770;9.190;2022-08-24T00:29:55;4.50;;;4.10;;
5127;SDS011;2582;48.770;9.190;2022-08-24T00:32:21;4.27;;;3.87;;
5127;SDS011;2582;48.770;9.190;2022-08-24T00:34:46;4.30;;;3.30;;
5127;SDS011;2582;48.770;9.190;2022-08-24T00:37:12;4.17;;;3.87;;
5127;SDS011;2582;48.770;9.190;2022-08-24T00:39:37;4.17;;;3.40;;
5127;SDS011;2582;48.770;9.190;2022-08-24T00:42:03;4.17;;;3.83;;
5127;SDS011;2582;48.770;9.190;2022-08-24T00:44:29;3.90;;;3.53;;
5127;SDS011;2582;48.770;9.190;2022-08-24T00:47:00;5.13;;;4.63;;
5127;SDS011;2582;48.770;9.190;2022-08-24T00:55:07;4.07;;;3.77;;
5127;SDS011;2582;48.770;9.190;2022-08-24T00:57:38;4.00;;;3.70;;
5127;SDS011;2582;48.770;9.190;2022-08-24T01:00:08;4.10;;;3.80;;
5127;SDS011;2582;48.770;9.190;2022-08-24T01:02:37;3.90;;;3.60;;
5127;SDS011;2582;48.770;9.190;2022-08-24T01:05:06;4.17;;;3.77;;
5127;SDS011;2582;48.770;9.190;2022-08-24T01:07:34;3.60;;;3.30;;
5127;SDS011;2582;48.770;9.190;2022-08-24T01:10:03;4.07;;;3.53;;
5127;SDS011;2582;48.770;9.190;2022-08-24T01:12:38;3.73;;;3.43;;
5127;SDS011;2582;48.770;9.190;2022-08-24T01:15:09;3.87;;;3.57;;
5127;SDS011;2582;48.770;9.190;2022-08-24T01:17:35;4.60;;;3.97;;
5127;SDS011;2582;48.770;9.190;2022-08-24T01:20:21;4.50;;;4.10;;
5127;SDS011;2582;48.770;9.190;2022-08-24T01:25:31;4.73;;;3.43;;
5127;SDS011;2582;48.770;9.190;2022-08-24T01:28:00;4.23;;;3.83;;
5127;SDS011;2582;48.770;9.190;2022-08-24T01:30:30;5.33;;;4.40;;
5127;SDS011;2582;48.770;9.190;2022-08-24T01:32:57;4.40;;;3.60;;
5127;SDS011;2582;48.770;9.190;2022-08-24T01:35:25;3.93;;;3.63;;
5127;SDS011;2582;48.770;9.190;2022-08-24T01:37:51;6.07;;;3.47;;
5127;SDS011;2582;48.770;9.190;2022-08-24T01:40:19;4.20;;;3.83;;
5127;SDS011;2582;48.770;9.190;2022-08-24T01:42:46;4.67;;;4.13;;
5127;SDS011;2582;48.770;9.190;2022-08-24T01:45:16;3.70;;;3.40;;
5127;SDS011;2582;48.770;9.190;2022-08-24T01:47:43;3.40;;;3.10;;
5127;SDS011;2582;48.770;9.190;2022-08-24T01:50:09;4.10;;;3.70;;
5127;SDS011;2582;48.770;9.190;2022-08-24T01:52:35;4.10;;;3.70;;
5127;SDS011;2582;48.770;9.190;2022-08-24T01:55:06;6.13;;;4.00;;
5127;SDS011;2582;48.770;9.190;2022-08-24T01:57:33;3.73;;;3.40;;
5127;SDS011;2582;48.770;9.190;2022-08-24T01:59:59;3.93;;;3.63;;
5127;SDS011;2582;48.770;9.190;2022-08-24T02:02:26;4.80;;;3.90;;
5127;SDS011;2582;48.770;9.190;2022-08-24T02:04:53;4.43;;;4.10;;
5127;SDS011;2582;48.770;9.190;2022-08-24T02:07:19;4.00;;;3.70;;
5127;SDS011;2582;48.770;9.190;2022-08-24T02:09:45;4.20;;;3.80;;
5127;SDS011;2582;48.770;9.190;2022-08-24T02:12:11;3.93;;;3.70;;
5127;SDS011;2582;48.770;9.190;2022-08-24T02:14:37;4.27;;;3.70;;
5127;SDS011;2582;48.770;9.190;2022-08-24T02:17:03;4.47;;;3.87;;
5127;SDS011;2582;48.770;9.190;2022-08-24T02:19:30;5.63;;;4.00;;
5127;SDS011;2582;48.770;9.190;2022-08-24T02:21:56;4.57;;;4.17;;
5127;SDS011;2582;48.770;9.190;2022-08-24T02:24:21;4.40;;;3.70;;
5127;SDS011;2582;48.770;9.190;2022-08-24T02:26:47;6.37;;;3.60;;
5127;SDS011;2582;48.770;9.190;2022-08-24T02:29:13;4.40;;;4.00;;
5127;SDS011;2582;48.770;9.190;2022-08-24T02:31:39;4.47;;;4.07;;
5127;SDS011;2582;48.770;9.190;2022-08-24T02:34:04;3.90;;;3.60;;
5127;SDS011;2582;48.770;9.190;2022-08-24T02:36:31;6.50;;;4.20;;
5127;SDS011;2582;48.770;9.190;2022-08-24T02:38:57;4.83;;;3.67;;
5127;SDS011;2582;48.770;9.190;2022-08-24T02:41:22;4.50;;;4.10;;
5127;SDS011;2582;48.770;9.190;2022-08-24T02:43:49;3.53;;;3.30;;
5127;SDS011;2582;48.770;9.190;2022-08-24T02:46:17;3.83;;;3.53;;
5127;SDS011;2582;48.770;9.190;2022-08-24T02:48:43;3.70;;;3.40;;
5127;SDS011;2582;48.770;9.190;2022-08-24T02:51:16;3.80;;;3.50;;
5127;SDS011;2582;48.770;9.190;2022-08-24T02:54:03;4.40;;;4.00;;
5127;SDS011;2582;48.770;9.190;2022-08-24T02:56:29;4.60;;;4.20;;
5127;SDS011;2582;48.770;9.190;2022-08-24T02:58:55;4.50;;;4.20;;
5127;SDS011;2582;48.770;9.190;2022-08-24T03:01:22;4.93;;;4.47;;
5127;SDS011;2582;48.770;9.190;2022-08-24T03:03:48;3.97;;;3.67;;
5127;SDS011;2582;48.770;9.190;2022-08-24T03:06:13;3.83;;;3.50;;
5127;SDS011;2582;48.770;9.190;2022-08-24T03:08:39;4.70;;;4.30;;
5127;SDS011;2582;48.770;9.190;2022-08-24T03:11:05;4.93;;;4.53;;
5127;SDS011;2582;48.770;9.190;2022-08-24T03:13:32;3.93;;;3.63;;
5127;SDS011;2582;48.770;9.190;2022-08-24T03:15:58;5.40;;;4.87;;
5127;SDS011;2582;48.770;9.190;2022-08-24T03:18:24;4.03;;;3.73;;
5127;SDS011;2582;48.770;9.190;2022-08-24T03:20:55;4.77;;;4.37;;
5127;SDS011;2582;48.770;9.190;2022-08-24T03:23:22;4.50;;;4.10;;
5127;SDS011;2582;48.770;9.190;2022-08-24T03:25:48;5.17;;;4.50;;
5127;SDS011;2582;48.770;9.190;2022-08-24T03:28:16;5.63;;;4.00;;
5127;SDS011;2582;48.770;9.190;2022-08-24T03:30:46;4.70;;;4.30;;
5127;SDS011;2582;48.770;9.190;2022-08-24T03:33:12;5.23;;;4.67;;
5127;SDS011;2582;48.770;9.190;2022-08-24T03:35:38;4.50;;;4.10;;
5127;SDS011;2582;48.770;9.190;2022-08-24T03:38:04;5.30;;;4.60;;
5127;SDS011;2582;48.770;9.190;2022-08-24T03:40:31;5.20;;;4.50;;
5127;SDS011;2582;48.770;9.190;2022-08-24T03:42:57;4.77;;;4.37;;
5127;SDS011;2582;48.770;9.190;2022-08-24T03:45:23;5.50;;;5.00;;
5127;SDS011;2582;48.770;9.190;2022-08-24T03:47:49;6.00;;;5.47;;
5127;SDS011;2582;48.770;9.190;2022-08-24T03:50:16;5.20;;;4.80;;
5127;SDS011;2582;48.770;9.190;2022-08-24T03:52:42;5.60;;;4.90;;
5127;SDS011;2582;48.770;9.190;2022-08-24T03:55:08;5.23;;;4.83;;
5127;SDS011;2582;48.770;9.190;2022-08-24T03:57:34;4.83;;;4.50;;
5127;SDS011;2582;48.770;9.190;2022-08-24T04:00:00;5.50;;;4.53;;
5127;SDS011;2582;48.770;9.190;2022-08-24T04:02:26;5.43;;;4.93;;
5127;SDS011;2582;48.770;9.190;2022-08-24T04:04:52;5.33;;;4.87;;
5127;SDS011;2582;48.770;9.190;2022-08-24T04:07:18;5.10;;;4.70;;
5127;SDS011;2582;48.770;9.190;2022-08-24T04:09:44;5.77;;;5.17;;
5127;SDS011;2582;48.770;9.190;2022-08-24T04:12:09;5.27;;;4.87;;
5127;SDS011;2582;48.770;9.190;2022-08-24T04:14:35;6.20;;;5.60;;
5127;SDS011;2582;48.770;9.190;2022-08-24T04:17:01;5.57;;;5.07;;
5127;SDS011;2582;48.770;9.190;2022-08-24T04:19:27;5.80;;;5.30;;
5127;SDS011;2582;48.770;9.190;2022-08-24T04:21:53;7.00;;;5.40;;
5127;SDS011;2582;48.770;9.190;2022-08-24T04:24:21;6.20;;;5.40;;
5127;SDS011;2582;48.770;9.190;2022-08-24T04:26:46;6.60;;;5.33;;
5127;SDS011;2582;48.770;9.190;2022-08-24T04:29:12;7.37;;;5.50;;
5127;SDS011;2582;48.770;9.190;2022-08-24T04:31:40;6.73;;;6.23;;
5127;SDS011;2582;48.770;9.190;2022-08-24T04:34:06;5.60;;;5.20;;
5127;SDS011;2582;48.770;9.190;2022-08-24T04:36:33;4.97;;;4.57;;
5127;SDS011;2582;48.770;9.190;2022-08-24T04:38:59;4.67;;;4.27;;
5127;SDS011;2582;48.770;9.190;2022-08-24T04:41:25;5.17;;;4.77;;
5127;SDS011;2582;48.770;9.190;2022-08-24T04:43:51;6.93;;;5.20;;
5127;SDS011;2582;48.770;9.190;2022-08-24T04:46:17;5.43;;;5.00;;
5127;SDS011;2582;48.770;9.190;2022-08-24T04:48:45;4.80;;;4.33;;
5127;SDS011;2582;48.770;9.190;2022-08-24T04:51:13;5.80;;;5.30;;
5127;SDS011;2582;48.770;9.190;2022-08-24T04:53:41;5.60;;;5.13;;
5127;SDS011;2582;48.770;9.190;2022-08-24T04:56:13;6.03;;;5.10;;
5127;SDS011;2582;48.770;9.190;2022-08-24T04:58:41;5.20;;;4.90;;
5127;SDS011;2582;48.770;9.190;2022-08-24T05:01:10;5.10;;;4.60;;
5127;SDS011;2582;48.770;9.190;2022-08-24T05:03:38;5.83;;;5.33;;
5127;SDS011;2582;48.770;9.190;2022-08-24T05:06:03;5.40;;;5.00;;
5127;SDS011;2582;48.770;9.190;2022-08-24T05:08:29;5.27;;;4.77;;
5127;SDS011;2582;48.770;9.190;2022-08-24T05:10:56;5.57;;;5.00;;
5127;SDS011;2582;48.770;9.190;2022-08-24T05:13:22;8.00;;;5.07;;
5127;SDS011;2582;48.770;9.190;2022-08-24T05:15:47;6.13;;;5.53;;
5127;SDS011;2582;48.770;9.190;2022-08-24T05:18:13;6.00;;;5.50;;
5127;SDS011;2582;48.770;9.190;2022-08-24T05:20:44;7.00;;;5.60;;
5127;SDS011;2582;48.770;9.190;2022-08-24T05:23:11;7.30;;;5.30;;
5127;SDS011;2582;48.770;9.190;2022-08-24T05:25:37;7.20;;;4.93;;
5127;SDS011;2582;48.770;9.190;2022-08-24T05:28:04;5.70;;;5.00;;
5127;SDS011;2582;48.770;9.190;2022-08-24T05:30:30;5.60;;;5.10;;
5127;SDS011;2582;48.770;9.190;2022-08-24T05:32:56;6.23;;;5.60;;
5127;SDS011;2582;48.770;9.190;2022-08-24T05:35:21;4.93;;;4.53;;
5127;SDS011;2582;48.770;9.190;2022-08-24T05:37:47;6.20;;;4.73;;
5127;SDS011;2582;48.770;9.190;2022-08-24T05:40:13;6.53;;;5.30;;
5127;SDS011;2582;48.770;9.190;2022-08-24T05:42:40;5.90;;;4.90;;
5127;SDS011;2582;48.770;9.190;2022-08-24T05:45:06;6.70;;;5.73;;
5127;SDS011;2582;48.770;9.190;2022-08-24T05:47:32;6.00;;;5.17;;
5127;SDS011;2582;48.770;9.190;2022-08-24T05:49:58;5.13;;;4.73;;
5127;SDS011;2582;48.770;9.190;2022-08-24T05:52:25;5.77;;;5.27;;
5127;SDS011;2582;48.770;9.190;2022-08-24T05:54:52;5.53;;;5.03;;
5127;SDS011;2582;48.770;9.190;2022-08-24T05:57:21;6.00;;;5.37;;
5127;SDS011;2582;48.770;9.190;2022-08-24T05:59:47;5.77;;;5.23;;
5127;SDS011;2582;48.770;9.190;2022-08-24T06:02:14;5.97;;;5.37;;
5127;SDS011;2582;48.770;9.190;2022-08-24T06:04:40;6.40;;;5.67;;
5127;SDS011;2582;48.770;9.190;2022-08-24T06:07:06;6.17;;;5.60;;
5127;SDS011;2582;48.770;9.190;2022-08-24T06:09:35;6.70;;;5.23;;
5127;SDS011;2582;48.770;9.190;2022-08-24T06:12:02;6.13;;;5.60;;
5127;SDS011;2582;48.770;9.190;2022-08-24T06:14:28;5.80;;;5.30;;
5127;SDS011;2582;48.770;9.190;2022-08-24T06:16:53;5.40;;;4.90;;
5127;SDS011;2582;48.770;9.190;2022-08-24T06:19:19;5.47;;;5.07;;
5127;SDS011;2582;48.770;9.190;2022-08-24T06:21:47;6.90;;;6.20;;
5127;SDS011;2582;48.770;9.190;2022-08-24T06:24:14;7.27;;;4.50;;
5127;SDS011;2582;48.770;9.190;2022-08-24T06:26:41;6.13;;;5.07;;
5127;SDS011;2582;48.770;9.190;2022-08-24T06:29:26;4.73;;;4.33;;
5127;SDS011;2582;48.770;9.190;2022-08-24T06:31:51;5.50;;;5.00;;
5127;SDS011;2582;48.770;9.190;2022-08-24T06:34:18;4.87;;;4.47;;
5127;SDS011;2582;48.770;9.190;2022-08-24T06:36:44;4.57;;;4.17;;
5127;SDS011;2582;48.770;9.190;2022-08-24T06:39:10;4.70;;;4.30;;
5127;SDS011;2582;48.770;9.190;2022-08-24T06:41:37;4.83;;;4.43;;
5127;SDS011;2582;48.770;9.190;2022-08-24T06:44:03;5.20;;;4.13;;
5127;SDS011;2582;48.770;9.190;2022-08-24T06:46:29;4.63;;;4.33;;
5127;SDS011;2582;48.770;9.190;2022-08-24T06:48:55;4.27;;;3.97;;
5127;SDS011;2582;48.770;9.190;2022-08-24T06:51:21;5.37;;;4.83;;
5127;SDS011;2582;48.770;9.190;2022-08-24T06:53:47;5.97;;;5.57;;
5127;SDS011;2582;48.770;9.190;2022-08-24T06:56:14;5.60;;;4.80;;
5127;SDS011;2582;48.770;9.190;2022-08-24T06:58:40;5.13;;;4.67;;
5127;SDS011;2582;48.770;9.190;2022-08-24T07:01:13;5.43;;;4.93;;
5127;SDS011;2582;48.770;9.190;2022-08-24T07:03:42;5.70;;;5.30;;
5127;SDS011;2582;48.770;9.190;2022-08-24T07:06:08;6.20;;;5.63;;
5127;SDS011;2582;48.770;9.190;2022-08-24T07:08:33;6.53;;;6.00;;
5127;SDS011;2582;48.770;9.190;2022-08-24T07:11:00;6.30;;;5.70;;
5127;SDS011;2582;48.770;9.190;2022-08-24T07:13:26;8.13;;;6.53;;
5127;SDS011;2582;48.770;9.190;2022-08-24T07:15:55;5.77;;;5.37;;
5127;SDS011;2582;48.770;9.190;2022-08-24T07:18:20;7.50;;;6.27;;
5127;SDS011;2582;48.770;9.190;2022-08-24T07:20:46;7.40;;;6.47;;
5127;SDS011;2582;48.770;9.190;2022-08-24T07:23:12;7.07;;;6.10;;
5127;SDS011;2582;48.770;9.190;2022-08-24T07:25:39;6.50;;;5.90;;
5127;SDS011;2582;48.770;9.190;2022-08-24T07:28:05;7.37;;;6.73;;
5127;SDS011;2582;48.770;9.190;2022-08-24T07:30:31;10.23;;;6.10;;
5127;SDS011;2582;48.770;9.190;2022-08-24T07:32:57;9.53;;;5.50;;
5127;SDS011;2582;48.770;9.190;2022-08-24T07:35:23;6.30;;;5.67;;
5127;SDS011;2582;48.770;9.190;2022-08-24T07:37:50;7.07;;;5.77;;
5127;SDS011;2582;48.770;9.190;2022-08-24T07:40:16;13.50;;;7.03;;
5127;SDS011;2582;48.770;9.190;2022-08-24T07:42:45;6.33;;;5.83;;
5127;SDS011;2582;48.770;9.190;2022-08-24T07:45:15;6.97;;;6.37;;
5127;SDS011;2582;48.770;9.190;2022-08-24T07:47:42;6.70;;;6.00;;
5127;SDS011;2582;48.770;9.190;2022-08-24T07:50:09;10.10;;;6.40;;
5127;SDS011;2582;48.770;9.190;2022-08-24T07:52:35;6.10;;;5.20;;
5127;SDS011;2582;48.770;9.190;2022-08-24T07:55:01;5.13;;;4.73;;
5127;SDS011;2582;48.770;9.190;2022-08-24T07:57:27;5.33;;;4.83;;
5127;SDS011;2582;48.770;9.190;2022-08-24T07:59:53;6.17;;;5.37;;
5127;SDS011;2582;48.770;9.190;2022-08-24T08:02:19;4.40;;;3.93;;
5127;SDS011;2582;48.770;9.190;2022-08-24T08:04:44;5.60;;;3.33;;
5127;SDS011;2582;48.770;9.190;2022-08-24T08:07:10;5.43;;;3.33;;
5127;SDS011;2582;48.770;9.190;2022-08-24T08:09:37;3.37;;;2.60;;
5127;SDS011;2582;48.770;9.190;2022-08-24T08:12:03;2.80;;;2.60;;
5127;SDS011;2582;48.770;9.190;2022-08-24T08:14:28;7.00;;;3.13;;
5127;SDS011;2582;48.770;9.190;2022-08-24T08:16:54;3.17;;;2.83;;
5127;SDS011;2582;48.770;9.190;2022-08-24T08:19:20;3.00;;;2.70;;
5127;SDS011;2582;48.770;9.190;2022-08-24T08:21:47;3.93;;;3.57;;
5127;SDS011;2582;48.770;9.190;2022-08-24T08:24:33;4.30;;;2.73;;
5127;SDS011;2582;48.770;9.190;2022-08-24T08:26:59;3.37;;;3.07;;
5127;SDS011;2582;48.770;9.190;2022-08-24T08:29:25;3.50;;;3.20;;
5127;SDS011;2582;48.770;9.190;2022-08-24T08:31:52;5.40;;;3.07;;
5127;SDS011;2582;48.770;9.190;2022-08-24T08:34:18;3.30;;;3.00;;
5127;SDS011;2582;48.770;9.190;2022-08-24T08:36:44;4.90;;;3.37;;
5127;SDS011;2582;48.770;9.190;2022-08-24T08:39:11;3.63;;;2.80;;
5127;SDS011;2582;48.770;9.190;2022-08-24T08:41:52;3.00;;;2.70;;
5127;SDS011;2582;48.770;9.190;2022-08-24T08:44:50;6.97;;;2.90;;
5127;SDS011;2582;48.770;9.190;2022-08-24T08:55:56;3.00;;;2.60;;
5127;SDS011;2582;48.770;9.190;2022-08-24T09:07:49;4.53;;;3.20;;
5127;SDS011;2582;48.770;9.190;2022-08-24T09:21:33;4.77;;;3.70;;
5127;SDS011;2582;48.770;9.190;2022-08-24T09:24:14;3.83;;;2.80;;
5127;SDS011;2582;48.770;9.190;2022-08-24T09:46:59;2.53;;;2.20;;
5127;SDS011;2582;48.770;9.190;2022-08-24T10:00:30;2.60;;;1.77;;
5127;SDS011;2582;48.770;9.190;2022-08-24T10:05:44;2.50;;;1.80;;
5127;SDS011;2582;48.770;9.190;2022-08-24T10:08:30;2.43;;;1.97;;
5127;SDS011;2582;48.770;9.190;2022-08-24T10:13:47;1.87;;;1.77;;
5127;SDS011;2582;48.770;9.190;2022-08-24T10:22:00;3.20;;;2.10;;
5127;SDS011;2582;48.770;9.190;2022-08-24T10:24:57;3.90;;;1.83;;
5127;SDS011;2582;48.770;9.190;2022-08-24T10:33:19;2.70;;;2.17;;
5127;SDS011;2582;48.770;9.190;2022-08-24T10:46:58;2.37;;;2.17;;
5127;SDS011;2582;48.770;9.190;2022-08-24T10:54:43;2.63;;;2.43;;
5127;SDS011;2582;48.770;9.190;2022-08-24T11:02:39;3.10;;;2.67;;
5127;SDS011;2582;48.770;9.190;2022-08-24T11:05:17;2.10;;;1.90;;
5127;SDS011;2582;48.770;9.190;2022-08-24T11:10:23;3.27;;;2.17;;
5127;SDS011;2582;48.770;9.190;2022-08-24T11:12:52;2.70;;;2.10;;
5127;SDS011;2582;48.770;9.190;2022-08-24T11:15:19;1.53;;;1.43;;
5127;SDS011;2582;48.770;9.190;2022-08-24T11:17:55;2.30;;;1.63;;
5127;SDS011;2582;48.770;9.190;2022-08-24T11:20:33;1.70;;;1.60;;
5127;SDS011;2582;48.770;9.190;2022-08-24T11:23:04;2.10;;;1.70;;
5127;SDS011;2582;48.770;9.190;2022-08-24T11:25:52;2.03;;;1.60;;
5127;SDS011;2582;48.770;9.190;2022-08-24T11:30:55;1.80;;;1.70;;
5127;SDS011;2582;48.770;9.190;2022-08-24T11:33:31;1.70;;;1.50;;
5127;SDS011;2582;48.770;9.190;2022-08-24T11:35:59;2.60;;;1.63;;
5127;SDS011;2582;48.770;9.190;2022-08-24T11:38:28;2.33;;;1.73;;
5127;SDS011;2582;48.770;9.190;2022-08-24T11:56:51;1.83;;;1.40;;
5127;SDS011;2582;48.770;9.190;2022-08-24T12:02:17;3.00;;;1.70;;
5127;SDS011;2582;48.770;9.190;2022-08-24T12:05:48;1.60;;;1.50;;
5127;SDS011;2582;48.770;9.190;2022-08-24T12:11:07;1.47;;;1.37;;
5127;SDS011;2582;48.770;9.190;2022-08-24T12:21:42;3.23;;;1.70;;
5127;SDS011;2582;48.770;9.190;2022-08-24T12:24:12;1.60;;;1.40;;
5127;SDS011;2582;48.770;9.190;2022-08-24T12:26:43;1.93;;;1.73;;
5127;SDS011;2582;48.770;9.190;2022-08-24T12:29:33;2.10;;;1.40;;
5127;SDS011;2582;48.770;9.190;2022-08-24T12:34:45;1.50;;;1.23;;
5127;SDS011;2582;48.770;9.190;2022-08-24T12:40:38;2.10;;;1.90;;
5127;SDS011;2582;48.770;9.190;2022-08-24T12:45:53;1.30;;;1.20;;
5127;SDS011;2582;48.770;9.190;2022-08-24T12:53:32;1.80;;;1.27;;
5127;SDS011;2582;48.770;9.190;2022-08-24T12:59:28;2.00;;;1.90;;
5127;SDS011;2582;48.770;9.190;2022-08-24T13:17:49;1.40;;;1.30;;
5127;SDS011;2582;48.770;9.190;2022-08-24T13:25:42;1.37;;;1.27;;
5127;SDS011;2582;48.770;9.190;2022-08-24T13:30:54;1.60;;;1.50;;
5127;SDS011;2582;48.770;9.190;2022-08-24T13:38:58;2.13;;;1.50;;
5127;SDS011;2582;48.770;9.190;2022-08-24T13:41:49;1.80;;;1.40;;
5127;SDS011;2582;48.770;9.190;2022-08-24T13:47:25;2.13;;;1.63;;
5127;SDS011;2582;48.770;9.190;2022-08-24T13:50:07;2.23;;;2.03;;
5127;SDS011;2582;48.770;9.190;2022-08-24T14:01:33;1.67;;;1.57;;
5127;SDS011;2582;48.770;9.190;2022-08-24T14:09:31;1.40;;;1.30;;
5127;SDS011;2582;48.770;9.190;2022-08-24T14:18:12;1.93;;;1.83;;
5127;SDS011;2582;48.770;9.190;2022-08-24T14:37:04;2.03;;;1.50;;
5127;SDS011;2582;48.770;9.190;2022-08-24T14:42:37;1.80;;;1.70;;
5127;SDS011;2582;48.770;9.190;2022-08-24T14:45:17;1.77;;;1.60;;
5127;SDS011;2582;48.770;9.190;2022-08-24T14:50:52;2.53;;;1.60;;
5127;SDS011;2582;48.770;9.190;2022-08-24T15:05:42;2.73;;;2.20;;
5127;SDS011;2582;48.770;9.190;2022-08-24T15:08:13;2.93;;;2.03;;
5127;SDS011;2582;48.770;9.190;2022-08-24T15:11:06;2.13;;;1.90;;
5127;SDS011;2582;48.770;9.190;2022-08-24T15:13:43;2.43;;;1.97;;
5127;SDS011;2582;48.770;9.190;2022-08-24T15:24:41;2.33;;;2.13;;
5127;SDS011;2582;48.770;9.190;2022-08-24T15:33:12;2.00;;;1.90;;
5127;SDS011;2582;48.770;9.190;2022-08-24T15:35:40;1.90;;;1.80;;
5127;SDS011;2582;48.770;9.190;2022-08-24T15:40:42;2.03;;;1.93;;
5127;SDS011;2582;48.770;9.190;2022-08-24T15:43:07;1.97;;;1.77;;
5127;SDS011;2582;48.770;9.190;2022-08-24T15:45:34;1.73;;;1.63;;
5127;SDS011;2582;48.770;9.190;2022-08-24T15:48:06;1.70;;;1.60;;
5127;SDS011;2582;48.770;9.190;2022-08-24T15:50:40;3.40;;;1.80;;
5127;SDS011;2582;48.770;9.190;2022-08-24T15:53:11;2.07;;;1.87;;
5127;SDS011;2582;48.770;9.190;2022-08-24T15:55:54;2.30;;;1.93;;
5127;SDS011;2582;48.770;9.190;2022-08-24T15:58:30;2.93;;;2.33;;
5127;SDS011;2582;48.770;9.190;2022-08-24T16:01:18;1.97;;;1.40;;
5127;SDS011;2582;48.770;9.190;2022-08-24T16:04:09;2.10;;;1.90;;
5127;SDS011;2582;48.770;9.190;2022-08-24T16:06:39;5.30;;;1.80;;
5127;SDS011;2582;48.770;9.190;2022-08-24T16:16:50;2.00;;;1.90;;
5127;SDS011;2582;48.770;9.190;2022-08-24T16:19:26;4.40;;;1.80;;
5127;SDS011;2582;48.770;9.190;2022-08-24T16:21:58;2.10;;;1.70;;
5127;SDS011;2582;48.770;9.190;2022-08-24T16:26:58;3.77;;;1.70;;
5127;SDS011;2582;48.770;9.190;2022-08-24T16:34:49;2.30;;;1.93;;
5127;SDS011;2582;48.770;9.190;2022-08-24T16:37:17;2.57;;;1.73;;
5127;SDS011;2582;48.770;9.190;2022-08-24T16:39:44;2.30;;;2.10;;
5127;SDS011;2582;48.770;9.190;2022-08-24T16:42:23;2.50;;;2.30;;
5127;SDS011;2582;48.770;9.190;2022-08-24T16:44:51;2.40;;;2.00;;
5127;SDS011;2582;48.770;9.190;2022-08-24T16:47:18;1.90;;;1.80;;
5127;SDS011;2582;48.770;9.190;2022-08-24T16:49:44;1.77;;;1.67;;
5127;SDS011;2582;48.770;9.190;2022-08-24T16:52:10;2.90;;;2.40;;
5127;SDS011;2582;48.770;9.190;2022-08-24T16:54:36;3.03;;;2.10;;
5127;SDS011;2582;48.770;9.190;2022-08-24T16:57:04;3.80;;;2.70;;
5127;SDS011;2582;48.770;9.190;2022-08-24T16:59:36;2.10;;;1.80;;
5127;SDS011;2582;48.770;9.190;2022-08-24T17:02:02;2.37;;;2.10;;
5127;SDS011;2582;48.770;9.190;2022-08-24T17:04:28;1.83;;;1.57;;
5127;SDS011;2582;48.770;9.190;2022-08-24T17:06:54;2.40;;;2.20;;
5127;SDS011;2582;48.770;9.190;2022-08-24T17:09:20;2.40;;;1.90;;
5127;SDS011;2582;48.770;9.190;2022-08-24T17:11:46;2.00;;;1.80;;
5127;SDS011;2582;48.770;9.190;2022-08-24T17:14:12;2.80;;;2.27;;
5127;SDS011;2582;48.770;9.190;2022-08-24T17:16:39;2.87;;;1.83;;
5127;SDS011;2582;48.770;9.190;2022-08-24T17:19:07;2.13;;;1.93;;
5127;SDS011;2582;48.770;9.190;2022-08-24T17:21:37;1.93;;;1.83;;
5127;SDS011;2582;48.770;9.190;2022-08-24T17:24:04;2.03;;;1.70;;
5127;SDS011;2582;48.770;9.190;2022-08-24T17:26:33;2.47;;;1.63;;
5127;SDS011;2582;48.770;9.190;2022-08-24T17:29:01;2.00;;;1.90;;
5127;SDS011;2582;48.770;9.190;2022-08-24T17:31:30;1.70;;;1.60;;
5127;SDS011;2582;48.770;9.190;2022-08-24T17:33:57;1.80;;;1.70;;
5127;SDS011;2582;48.770;9.190;2022-08-24T17:36:23;2.47;;;2.10;;
5127;SDS011;2582;48.770;9.190;2022-08-24T17:38:50;4.20;;;2.10;;
5127;SDS011;2582;48.770;9.190;2022-08-24T17:41:18;4.70;;;2.00;;
5127;SDS011;2582;48.770;9.190;2022-08-24T17:43:44;1.80;;;1.70;;
5127;SDS011;2582;48.770;9.190;2022-08-24T17:46:10;2.77;;;2.00;;
5127;SDS011;2582;48.770;9.190;2022-08-24T17:48:38;1.67;;;1.43;;
5127;SDS011;2582;48.770;9.190;2022-08-24T17:51:06;2.30;;;2.00;;
5127;SDS011;2582;48.770;9.190;2022-08-24T17:53:31;1.90;;;1.50;;
5127;SDS011;2582;48.770;9.190;2022-08-24T17:55:57;4.13;;;1.90;;
5127;SDS011;2582;48.770;9.190;2022-08-24T17:58:23;2.20;;;2.00;;
5127;SDS011;2582;48.770;9.190;2022-08-24T18:00:49;3.10;;;2.70;;
5127;SDS011;2582;48.770;9.190;2022-08-24T18:03:14;3.87;;;2.13;;
5127;SDS011;2582;48.770;9.190;2022-08-24T18:05:40;2.37;;;1.97;;
5127;SDS011;2582;48.770;9.190;2022-08-24T18:08:06;2.40;;;2.13;;
5127;SDS011;2582;48.770;9.190;2022-08-24T18:10:32;3.40;;;2.30;;
5127;SDS011;2582;48.770;9.190;2022-08-24T18:12:58;2.60;;;1.80;;
5127;SDS011;2582;48.770;9.190;2022-08-24T18:15:25;2.73;;;1.90;;
5127;SDS011;2582;48.770;9.190;2022-08-24T18:17:55;1.90;;;1.80;;
5127;SDS011;2582;48.770;9.190;2022-08-24T18:20:25;2.10;;;1.90;;
5127;SDS011;2582;48.770;9.190;2022-08-24T18:22:53;1.57;;;1.47;;
5127;SDS011;2582;48.770;9.190;2022-08-24T18:25:20;2.50;;;2.30;;
5127;SDS011;2582;48.770;9.190;2022-08-24T18:27:47;3.00;;;2.00;;
5127;SDS011;2582;48.770;9.190;2022-08-24T18:30:24;6.43;;;4.70;;
5127;SDS011;2582;48.770;9.190;2022-08-24T18:32:51;2.97;;;2.77;;
5127;SDS011;2582;48.770;9.190;2022-08-24T18:35:17;2.40;;;2.20;;
5127;SDS011;2582;48.770;9.190;2022-08-24T18:37:43;9.23;;;8.17;;
5127;SDS011;2582;48.770;9.190;2022-08-24T18:40:09;3.90;;;3.60;;
5127;SDS011;2582;48.770;9.190;2022-08-24T18:42:35;3.00;;;2.33;;
5127;SDS011;2582;48.770;9.190;2022-08-24T18:45:02;2.67;;;2.30;;
5127;SDS011;2582;48.770;9.190;2022-08-24T18:47:28;2.20;;;1.93;;
5127;SDS011;2582;48.770;9.190;2022-08-24T18:49:54;2.90;;;2.50;;
5127;SDS011;2582;48.770;9.190;2022-08-24T18:52:19;3.20;;;2.43;;
5127;SDS011;2582;48.770;9.190;2022-08-24T18:54:46;3.00;;;2.00;;
5127;SDS011;2582;48.770;9.190;2022-08-24T18:57:12;2.00;;;1.90;;
5127;SDS011;2582;48.770;9.190;2022-08-24T18:59:38;3.70;;;3.40;;
5127;SDS011;2582;48.770;9.190;2022-08-24T19:02:11;3.17;;;2.90;;
5127;SDS011;2582;48.770;9.190;2022-08-24T19:05:01;2.50;;;2.27;;
5127;SDS011;2582;48.770;9.190;2022-08-24T19:08:06;2.70;;;2.47;;
5127;SDS011;2582;48.770;9.190;2022-08-24T19:10:26;3.20;;;2.83;;
5127;SDS011;2582;48.770;9.190;2022-08-24T19:12:57;3.03;;;2.17;;
5127;SDS011;2582;48.770;9.190;2022-08-24T19:15:25;3.00;;;2.60;;
5127;SDS011;2582;48.770;9.190;2022-08-24T19:17:51;4.10;;;2.90;;
5127;SDS011;2582;48.770;9.190;2022-08-24T19:20:19;2.40;;;2.20;;
5127;SDS011;2582;48.770;9.190;2022-08-24T19:22:44;3.03;;;2.73;;
5127;SDS011;2582;48.770;9.190;2022-08-24T19:25:22;4.63;;;2.50;;
5127;SDS011;2582;48.770;9.190;2022-08-24T19:27:51;3.47;;;2.47;;
5127;SDS011;2582;48.770;9.190;2022-08-24T19:30:19;2.97;;;2.70;;
5127;SDS011;2582;48.770;9.190;2022-08-24T19:32:45;3.37;;;2.60;;
5127;SDS011;2582;48.770;9.190;2022-08-24T19:35:11;3.20;;;2.70;;
5127;SDS011;2582;48.770;9.190;2022-08-24T19:37:39;4.43;;;2.33;;
5127;SDS011;2582;48.770;9.190;2022-08-24T19:40:05;2.57;;;2.37;;
5127;SDS011;2582;48.770;9.190;2022-08-24T19:42:31;3.57;;;2.80;;
5127;SDS011;2582;48.770;9.190;2022-08-24T19:44:57;2.97;;;2.50;;
5127;SDS011;2582;48.770;9.190;2022-08-24T19:47:42;2.40;;;2.20;;
5127;SDS011;2582;48.770;9.190;2022-08-24T19:50:08;4.33;;;2.37;;
5127;SDS011;2582;48.770;9.190;2022-08-24T19:52:35;3.43;;;2.80;;
5127;SDS011;2582;48.770;9.190;2022-08-24T19:55:02;3.50;;;2.80;;
5127;SDS011;2582;48.770;9.190;2022-08-24T20:00:23;2.67;;;2.47;;
5127;SDS011;2582;48.770;9.190;2022-08-24T20:03:07;3.63;;;2.97;;
5127;SDS011;2582;48.770;9.190;2022-08-24T20:05:33;3.57;;;2.97;;
5127;SDS011;2582;48.770;9.190;2022-08-24T20:07:59;2.90;;;2.70;;